Time;durP1;ratioP1;P1;durP2;ratioP2;P2;SDS_P1;SDS_P2;PMS_P1;PMS_P2;Temp;Humidity;BMP_temperature;BMP_pressure;BME280_temperature;BME280_humidity;BME280_pressure;Samples;Min_cycle;Max_cycle;Signal;HPM_P1;HPM_P2
2022/12/08 00:00:13;;;;;;;12.93;9.18;;;;;;;;;;522040;28;1513;-62
2022/12/08 00:00:28;;;;;;;14.33;9.50;;;;;;;;;;522350;28;1359;-62
2022/12/08 00:00:43;;;;;;;13.70;9.20;;;;;;;;;;521822;28;1254;-62
2022/12/08 00:01:06;;;;;;;12.75;8.85;;;;;;;;;;521274;28;1130;-62
2022/12/08 00:01:27;;;;;;;12.35;8.85;;;;;;;;;;520366;28;1380;-62
2022/12/08 00:01:42;;;;;;;12.27;8.65;;;;;;;;;;516440;28;1470;-62
2022/12/08 00:01:57;;;;;;;14.63;8.80;;;;;;;;;;516956;28;1092;-62
2022/12/08 00:02:12;;;;;;;13.90;8.50;;;;;;;;;;517678;28;1183;-62
2022/12/08 00:02:28;;;;;;;12.37;8.27;;;;;;;;;;518435;28;1413;-62
2022/12/08 00:02:43;;;;;;;11.73;8.30;;;;;;;;;;520072;28;1316;-62
2022/12/08 00:02:58;;;;;;;11.45;8.40;;;;;;;;;;517455;28;1499;-62
2022/12/08 00:03:14;;;;;;;12.30;8.20;;;;;;;;;;516813;28;1170;-62
2022/12/08 00:03:29;;;;;;;12.73;8.13;;;;;;;;;;521834;28;1379;-62
2022/12/08 00:03:44;;;;;;;14.10;8.40;;;;;;;;;;522991;28;1144;-62
2022/12/08 00:04:01;;;;;;;13.90;8.40;;;;;;;;;;521390;28;1326;-62
2022/12/08 00:04:16;;;;;;;12.10;8.40;;;;;;;;;;521255;28;1204;-62
2022/12/08 00:09:20;;;;;;;12.33;8.37;;;;;;;;;;519944;28;1266;-62
2022/12/08 00:09:35;;;;;;;12.57;8.32;;;;;;;;;;526139;27;1210;-62
2022/12/08 00:09:50;;;;;;;13.25;8.80;;;;;;;;;;524354;27;1268;-62
2022/12/08 00:10:06;;;;;;;14.53;8.80;;;;;;;;;;525790;27;1356;-62
2022/12/08 00:10:21;;;;;;;13.32;8.88;;;;;;;;;;524394;27;1306;-62
2022/12/08 00:10:37;;;;;;;12.50;8.93;;;;;;;;;;524484;28;1396;-62
2022/12/08 00:10:52;;;;;;;13.70;9.15;;;;;;;;;;522687;28;1324;-62
2022/12/08 00:11:12;;;;;;;13.47;9.07;;;;;;;;;;519444;28;1359;-62
2022/12/08 00:11:27;;;;;;;13.05;8.70;;;;;;;;;;520970;28;2250;-62
2022/12/08 00:11:42;;;;;;;13.40;8.87;;;;;;;;;;521289;28;1291;-62
2022/12/08 00:12:01;;;;;;;13.17;8.77;;;;;;;;;;524284;28;1165;-62
2022/12/08 00:12:16;;;;;;;12.52;8.43;;;;;;;;;;523710;28;1209;-62
2022/12/08 00:12:32;;;;;;;12.52;8.27;;;;;;;;;;522733;28;1518;-62
2022/12/08 00:12:47;;;;;;;12.63;8.43;;;;;;;;;;520469;28;1284;-62
2022/12/08 00:13:02;;;;;;;11.93;8.47;;;;;;;;;;518612;28;1213;-62
2022/12/08 00:13:17;;;;;;;11.43;8.47;;;;;;;;;;516424;28;1213;-62
2022/12/08 00:13:33;;;;;;;12.50;8.70;;;;;;;;;;517331;28;1245;-62
2022/12/08 00:13:48;;;;;;;13.13;8.50;;;;;;;;;;518327;28;1200;-62
2022/12/08 00:14:03;;;;;;;11.73;8.10;;;;;;;;;;515629;28;1023;-62
2022/12/08 00:14:21;;;;;;;10.30;8.10;;;;;;;;;;516853;28;1247;-62
2022/12/08 00:14:39;;;;;;;10.90;8.52;;;;;;;;;;517631;28;1123;-62
2022/12/08 00:14:54;;;;;;;11.25;8.32;;;;;;;;;;519275;28;1386;-62
2022/12/08 00:15:10;;;;;;;11.98;8.35;;;;;;;;;;521222;28;1218;-63
2022/12/08 00:15:25;;;;;;;12.57;8.87;;;;;;;;;;521299;28;1022;-62
2022/12/08 00:15:40;;;;;;;12.40;8.67;;;;;;;;;;522484;28;1919;-62
2022/12/08 00:15:59;;;;;;;14.67;9.03;;;;;;;;;;520713;28;1410;-62
2022/12/08 00:16:15;;;;;;;14.48;9.07;;;;;;;;;;521375;28;1310;-62
2022/12/08 00:16:30;;;;;;;13.10;8.80;;;;;;;;;;524060;28;1185;-62
2022/12/08 00:16:46;;;;;;;12.67;8.90;;;;;;;;;;522041;28;1222;-62
2022/12/08 00:17:02;;;;;;;11.38;8.90;;;;;;;;;;520012;28;1270;-62
2022/12/08 00:17:18;;;;;;;11.35;8.77;;;;;;;;;;519865;28;1367;-62
2022/12/08 00:17:33;;;;;;;12.57;8.60;;;;;;;;;;518219;28;1003;-62
2022/12/08 00:17:48;;;;;;;14.23;8.77;;;;;;;;;;519672;28;1166;-62
2022/12/08 00:18:04;;;;;;;13.43;8.70;;;;;;;;;;518942;28;1288;-62
2022/12/08 00:18:19;;;;;;;14.10;8.73;;;;;;;;;;521696;28;1620;-62
2022/12/08 00:18:35;;;;;;;14.70;8.90;;;;;;;;;;521901;28;1155;-62
2022/12/08 00:18:50;;;;;;;12.13;8.57;;;;;;;;;;523063;28;1101;-62
2022/12/08 00:19:05;;;;;;;12.30;8.50;;;;;;;;;;523720;27;1332;-62
2022/12/08 00:19:21;;;;;;;12.87;8.67;;;;;;;;;;521634;28;1266;-62
2022/12/08 00:19:40;;;;;;;12.02;8.75;;;;;;;;;;524286;28;1168;-62
2022/12/08 00:19:56;;;;;;;12.48;8.80;;;;;;;;;;521299;28;1346;-62
2022/12/08 00:20:11;;;;;;;11.73;8.37;;;;;;;;;;520818;28;1244;-62
2022/12/08 00:20:26;;;;;;;12.43;8.63;;;;;;;;;;519782;28;1341;-62
2022/12/08 00:20:42;;;;;;;13.07;8.90;;;;;;;;;;519916;28;1244;-62
2022/12/08 00:20:58;;;;;;;11.83;8.70;;;;;;;;;;519290;28;1451;-61
2022/12/08 00:21:13;;;;;;;11.15;8.27;;;;;;;;;;520175;28;1247;-62
2022/12/08 00:21:28;;;;;;;12.23;8.50;;;;;;;;;;519898;28;1385;-62
2022/12/08 00:21:43;;;;;;;13.00;8.60;;;;;;;;;;524053;28;1476;-62
2022/12/08 00:21:59;;;;;;;13.07;8.63;;;;;;;;;;523426;28;1228;-62
2022/12/08 00:22:14;;;;;;;12.13;9.02;;;;;;;;;;522943;28;1216;-62
2022/12/08 00:22:31;;;;;;;11.97;8.87;;;;;;;;;;522045;28;1029;-62
2022/12/08 00:22:46;;;;;;;12.95;9.05;;;;;;;;;;522204;28;1310;-62
2022/12/08 00:23:03;;;;;;;12.75;9.20;;;;;;;;;;518854;28;1552;-62
2022/12/08 00:23:18;;;;;;;12.02;9.05;;;;;;;;;;519931;28;1297;-62
2022/12/08 00:23:33;;;;;;;13.07;9.23;;;;;;;;;;517824;28;1327;-62
2022/12/08 00:23:48;;;;;;;13.40;9.13;;;;;;;;;;521416;28;1277;-62
2022/12/08 00:24:04;;;;;;;13.83;8.97;;;;;;;;;;521450;28;1228;-62
2022/12/08 00:24:21;;;;;;;14.70;9.07;;;;;;;;;;520859;28;1086;-62
2022/12/08 00:24:38;;;;;;;14.20;8.85;;;;;;;;;;518694;28;1325;-61
2022/12/08 00:24:53;;;;;;;12.95;8.70;;;;;;;;;;520996;28;1484;-62
2022/12/08 00:25:09;;;;;;;12.50;8.73;;;;;;;;;;522572;28;1053;-62
2022/12/08 00:25:24;;;;;;;12.87;8.67;;;;;;;;;;520445;28;1278;-62
2022/12/08 00:25:39;;;;;;;12.95;8.63;;;;;;;;;;521954;28;1086;-62
2022/12/08 00:25:54;;;;;;;13.70;8.93;;;;;;;;;;517597;28;1251;-62
2022/12/08 00:26:10;;;;;;;12.90;8.87;;;;;;;;;;519393;28;1302;-62
2022/12/08 00:26:25;;;;;;;12.23;8.53;;;;;;;;;;519773;28;1129;-62
2022/12/08 00:26:40;;;;;;;12.80;8.52;;;;;;;;;;522942;28;1153;-62
2022/12/08 00:26:55;;;;;;;13.20;8.60;;;;;;;;;;519062;28;1302;-62
2022/12/08 00:27:15;;;;;;;13.77;9.00;;;;;;;;;;516118;28;1275;-62
2022/12/08 00:27:30;;;;;;;13.20;8.95;;;;;;;;;;518099;28;2448;-62
2022/12/08 00:27:45;;;;;;;12.63;8.77;;;;;;;;;;518158;28;1214;-62
2022/12/08 00:28:00;;;;;;;12.87;8.80;;;;;;;;;;517521;28;1154;-62
2022/12/08 00:28:16;;;;;;;13.17;8.90;;;;;;;;;;516536;28;1369;-62
2022/12/08 00:28:33;;;;;;;12.43;8.80;;;;;;;;;;516490;28;1420;-62
2022/12/08 00:28:48;;;;;;;11.55;8.85;;;;;;;;;;517587;28;1457;-62
2022/12/08 00:29:04;;;;;;;12.03;8.87;;;;;;;;;;518116;28;1082;-62
2022/12/08 00:29:20;;;;;;;12.55;9.00;;;;;;;;;;516221;28;1335;-62
2022/12/08 00:29:35;;;;;;;12.82;9.18;;;;;;;;;;521081;28;1082;-62
2022/12/08 00:29:50;;;;;;;13.10;8.73;;;;;;;;;;521277;28;1169;-62
2022/12/08 00:30:06;;;;;;;12.20;8.80;;;;;;;;;;522351;28;1102;-62
2022/12/08 00:30:22;;;;;;;11.88;9.13;;;;;;;;;;522324;28;1141;-62
2022/12/08 00:30:39;;;;;;;12.73;9.07;;;;;;;;;;520265;28;1233;-62
2022/12/08 00:30:54;;;;;;;13.55;9.00;;;;;;;;;;522601;28;1297;-62
2022/12/08 00:31:10;;;;;;;13.03;8.87;;;;;;;;;;522352;28;1277;-62
2022/12/08 00:31:25;;;;;;;12.07;8.90;;;;;;;;;;524937;28;1132;-62
2022/12/08 00:31:41;;;;;;;12.27;8.87;;;;;;;;;;519966;28;1301;-62
2022/12/08 00:31:56;;;;;;;12.98;8.70;;;;;;;;;;520692;28;1332;-62
2022/12/08 00:32:11;;;;;;;13.20;8.57;;;;;;;;;;521336;28;1105;-62
2022/12/08 00:32:27;;;;;;;12.33;8.37;;;;;;;;;;523695;28;1141;-62
2022/12/08 00:32:42;;;;;;;11.68;8.40;;;;;;;;;;522876;28;1401;-62
2022/12/08 00:32:57;;;;;;;12.37;8.70;;;;;;;;;;519403;28;1205;-62
2022/12/08 00:33:12;;;;;;;11.83;8.57;;;;;;;;;;520038;28;1443;-62
2022/12/08 00:33:28;;;;;;;10.52;8.18;;;;;;;;;;522742;28;1329;-62
2022/12/08 00:33:43;;;;;;;11.10;8.30;;;;;;;;;;522270;28;1281;-62
2022/12/08 00:33:59;;;;;;;11.93;8.60;;;;;;;;;;520821;28;1194;-62
2022/12/08 00:34:15;;;;;;;12.20;8.68;;;;;;;;;;520092;28;1175;-62
2022/12/08 00:34:31;;;;;;;11.52;8.20;;;;;;;;;;519384;28;1228;-62
2022/12/08 00:34:47;;;;;;;11.88;8.15;;;;;;;;;;518512;28;1295;-62
2022/12/08 00:35:02;;;;;;;12.45;8.70;;;;;;;;;;518962;28;1022;-62
2022/12/08 00:35:17;;;;;;;12.23;8.47;;;;;;;;;;518725;28;1188;-62
2022/12/08 00:35:33;;;;;;;11.60;7.97;;;;;;;;;;521434;28;1959;-62
2022/12/08 00:35:48;;;;;;;11.13;8.00;;;;;;;;;;523192;28;1208;-62
2022/12/08 00:36:09;;;;;;;11.93;8.07;;;;;;;;;;520499;28;1199;-62
2022/12/08 00:36:24;;;;;;;11.32;8.02;;;;;;;;;;519673;28;1095;-62
2022/12/08 00:36:40;;;;;;;11.37;7.97;;;;;;;;;;520807;28;1223;-62
2022/12/08 00:36:55;;;;;;;12.93;8.60;;;;;;;;;;519791;28;1554;-62
2022/12/08 00:37:10;;;;;;;13.80;8.57;;;;;;;;;;517493;28;1183;-62
2022/12/08 00:37:25;;;;;;;12.93;8.10;;;;;;;;;;519234;28;1352;-62
2022/12/08 00:37:41;;;;;;;11.93;8.27;;;;;;;;;;517351;28;1210;-62
2022/12/08 00:37:56;;;;;;;12.23;8.57;;;;;;;;;;520633;28;1199;-62
2022/12/08 00:38:11;;;;;;;12.80;9.07;;;;;;;;;;521834;28;1150;-62
2022/12/08 00:38:26;;;;;;;13.45;9.38;;;;;;;;;;520446;28;1061;-62
2022/12/08 00:38:43;;;;;;;13.67;9.23;;;;;;;;;;520867;28;1432;-62
2022/12/08 00:38:59;;;;;;;15.10;9.15;;;;;;;;;;521982;28;1220;-62
2022/12/08 00:39:15;;;;;;;12.97;8.83;;;;;;;;;;521890;28;1382;-62
2022/12/08 00:39:31;;;;;;;12.50;8.70;;;;;;;;;;521522;28;1448;-62
2022/12/08 00:39:46;;;;;;;12.57;8.50;;;;;;;;;;522763;28;1229;-62
2022/12/08 00:40:02;;;;;;;11.68;8.50;;;;;;;;;;525594;27;1145;-62
2022/12/08 00:40:17;;;;;;;11.60;8.53;;;;;;;;;;524210;27;1327;-62
2022/12/08 00:40:32;;;;;;;11.48;8.60;;;;;;;;;;522267;28;1235;-62
2022/12/08 00:40:48;;;;;;;12.40;9.00;;;;;;;;;;522427;28;1288;-62
2022/12/08 00:41:07;;;;;;;12.87;9.80;;;;;;;;;;522123;28;1178;-62
2022/12/08 00:42:10;;;;;;;13.45;8.30;;;;;;;;;;521571;28;1041;-62
2022/12/08 00:42:26;;;;;;;12.13;8.68;;;;;;;;;;524386;28;1082;-62
2022/12/08 00:42:41;;;;;;;11.87;8.73;;;;;;;;;;521770;28;1305;-62
2022/12/08 00:42:56;;;;;;;12.27;9.53;;;;;;;;;;524400;28;1190;-62
2022/12/08 00:43:12;;;;;;;12.85;9.60;;;;;;;;;;525004;27;1197;-62
2022/12/08 00:43:28;;;;;;;15.15;10.10;;;;;;;;;;523424;28;973;-62
2022/12/08 00:43:43;;;;;;;16.17;11.77;;;;;;;;;;526695;27;1136;-62
2022/12/08 00:43:58;;;;;;;16.35;13.90;;;;;;;;;;524035;27;1180;-62
2022/12/08 00:44:17;;;;;;;16.27;13.03;;;;;;;;;;525123;28;1140;-62
2022/12/08 00:44:33;;;;;;;14.57;10.82;;;;;;;;;;523974;27;1094;-62
2022/12/08 00:44:48;;;;;;;14.47;11.73;;;;;;;;;;521610;28;1205;-62
2022/12/08 00:45:04;;;;;;;14.45;10.52;;;;;;;;;;521208;28;1550;-62
2022/12/08 00:45:19;;;;;;;14.00;10.13;;;;;;;;;;521018;28;1212;-62
2022/12/08 00:45:34;;;;;;;14.23;11.80;;;;;;;;;;521146;28;1166;-62
2022/12/08 00:45:49;;;;;;;14.67;11.80;;;;;;;;;;520251;28;1197;-62
2022/12/08 00:46:05;;;;;;;13.33;9.83;;;;;;;;;;519496;28;1314;-62
2022/12/08 00:46:20;;;;;;;13.68;8.65;;;;;;;;;;519915;28;1469;-62
2022/12/08 00:46:35;;;;;;;15.47;9.70;;;;;;;;;;521456;28;1181;-62
2022/12/08 00:46:51;;;;;;;15.00;11.10;;;;;;;;;;523105;28;1248;-62
2022/12/08 00:47:06;;;;;;;12.33;10.17;;;;;;;;;;520224;28;1286;-62
2022/12/08 00:47:21;;;;;;;13.18;10.85;;;;;;;;;;521828;28;1185;-62
2022/12/08 00:47:37;;;;;;;18.33;15.50;;;;;;;;;;523244;28;1224;-62
2022/12/08 00:47:52;;;;;;;18.38;13.98;;;;;;;;;;523409;28;1357;-62
2022/12/08 00:48:07;;;;;;;14.77;9.80;;;;;;;;;;522562;28;1055;-62
2022/12/08 00:48:22;;;;;;;13.93;9.30;;;;;;;;;;521881;28;1251;-62
2022/12/08 00:48:38;;;;;;;12.90;9.03;;;;;;;;;;521799;28;1244;-62
2022/12/08 00:48:53;;;;;;;11.98;8.75;;;;;;;;;;523689;28;1177;-62
2022/12/08 00:49:08;;;;;;;13.57;8.90;;;;;;;;;;525027;28;1213;-62
2022/12/08 00:49:24;;;;;;;12.93;8.87;;;;;;;;;;524111;28;1465;-61
2022/12/08 00:49:39;;;;;;;12.13;8.63;;;;;;;;;;521496;28;1310;-62
2022/12/08 00:49:55;;;;;;;11.83;8.57;;;;;;;;;;521733;28;1237;-62
2022/12/08 00:50:11;;;;;;;13.70;9.00;;;;;;;;;;521773;28;1234;-61
2022/12/08 00:50:26;;;;;;;15.88;9.20;;;;;;;;;;522715;28;1114;-62
2022/12/08 00:50:42;;;;;;;14.60;9.23;;;;;;;;;;519235;28;1179;-61
2022/12/08 00:50:57;;;;;;;13.85;9.18;;;;;;;;;;516914;28;1366;-62
2022/12/08 00:51:12;;;;;;;13.87;9.33;;;;;;;;;;518531;28;1084;-62
2022/12/08 00:51:28;;;;;;;13.93;9.33;;;;;;;;;;519830;28;1316;-62
2022/12/08 00:51:44;;;;;;;13.98;9.55;;;;;;;;;;519994;28;1215;-62
2022/12/08 00:51:59;;;;;;;12.68;9.50;;;;;;;;;;519329;28;1200;-62
2022/12/08 00:52:15;;;;;;;14.40;9.40;;;;;;;;;;516578;28;1379;-62
2022/12/08 00:52:30;;;;;;;15.27;9.50;;;;;;;;;;516185;28;1440;-62
2022/12/08 00:52:45;;;;;;;14.07;9.07;;;;;;;;;;519163;28;1138;-62
2022/12/08 00:53:00;;;;;;;14.03;8.83;;;;;;;;;;519593;28;1162;-62
2022/12/08 00:53:16;;;;;;;13.70;9.30;;;;;;;;;;523210;28;1578;-62
2022/12/08 00:53:31;;;;;;;13.00;9.67;;;;;;;;;;520065;28;1079;-62
2022/12/08 00:53:47;;;;;;;12.87;9.60;;;;;;;;;;521896;28;1042;-62
2022/12/08 00:54:03;;;;;;;12.27;9.27;;;;;;;;;;521167;28;1201;-62
2022/12/08 00:54:19;;;;;;;12.48;9.07;;;;;;;;;;523289;28;1206;-62
2022/12/08 00:54:34;;;;;;;12.80;9.20;;;;;;;;;;519638;28;1226;-62
2022/12/08 00:54:49;;;;;;;13.13;9.60;;;;;;;;;;519216;28;1264;-63
2022/12/08 00:55:05;;;;;;;13.82;9.75;;;;;;;;;;521960;28;1149;-62
2022/12/08 00:55:20;;;;;;;14.20;9.77;;;;;;;;;;522331;28;1194;-62
2022/12/08 00:55:35;;;;;;;13.33;9.43;;;;;;;;;;522602;28;1938;-62
2022/12/08 00:55:51;;;;;;;13.27;9.45;;;;;;;;;;521136;28;1239;-62
2022/12/08 00:56:06;;;;;;;13.83;9.70;;;;;;;;;;520226;28;1168;-61
2022/12/08 00:56:22;;;;;;;13.97;9.53;;;;;;;;;;519104;28;1329;-61
2022/12/08 00:56:37;;;;;;;14.43;9.63;;;;;;;;;;519238;28;1187;-62
2022/12/08 00:56:53;;;;;;;13.90;9.63;;;;;;;;;;518931;28;1143;-62
2022/12/08 00:57:08;;;;;;;13.93;9.50;;;;;;;;;;517833;28;1099;-62
2022/12/08 00:57:24;;;;;;;15.00;9.57;;;;;;;;;;519973;28;1110;-61
2022/12/08 00:57:39;;;;;;;14.13;9.50;;;;;;;;;;519245;28;1350;-62
2022/12/08 00:57:54;;;;;;;13.10;9.37;;;;;;;;;;521147;28;1183;-61
2022/12/08 00:58:09;;;;;;;13.70;9.50;;;;;;;;;;521729;28;1150;-62
2022/12/08 00:58:25;;;;;;;13.85;9.60;;;;;;;;;;523269;28;1184;-61
2022/12/08 00:58:40;;;;;;;13.97;9.63;;;;;;;;;;522381;28;1268;-61
2022/12/08 00:58:55;;;;;;;14.57;9.73;;;;;;;;;;520324;28;1308;-61
2022/12/08 00:59:11;;;;;;;14.27;9.60;;;;;;;;;;523427;28;1196;-62
2022/12/08 00:59:26;;;;;;;12.93;9.57;;;;;;;;;;522656;28;1184;-62
2022/12/08 00:59:41;;;;;;;13.90;9.57;;;;;;;;;;520698;28;1492;-62
2022/12/08 00:59:56;;;;;;;14.63;9.23;;;;;;;;;;524275;28;1082;-62
2022/12/08 01:00:12;;;;;;;14.67;9.30;;;;;;;;;;518373;28;1356;-62
2022/12/08 01:00:28;;;;;;;15.00;9.73;;;;;;;;;;521501;28;1195;-62
2022/12/08 01:00:43;;;;;;;14.13;9.67;;;;;;;;;;520114;28;1385;-62
2022/12/08 01:00:58;;;;;;;15.98;9.57;;;;;;;;;;521080;28;1087;-61
2022/12/08 01:01:14;;;;;;;16.83;9.50;;;;;;;;;;520820;28;1134;-62
2022/12/08 01:01:29;;;;;;;13.70;9.40;;;;;;;;;;521207;28;1173;-62
2022/12/08 01:01:46;;;;;;;12.27;9.40;;;;;;;;;;522388;28;978;-62
2022/12/08 01:02:01;;;;;;;12.90;9.38;;;;;;;;;;522319;28;1230;-62
2022/12/08 01:02:16;;;;;;;14.15;9.65;;;;;;;;;;521770;28;1256;-62
2022/12/08 01:02:33;;;;;;;13.93;9.63;;;;;;;;;;520893;28;1231;-62
2022/12/08 01:02:48;;;;;;;13.20;9.32;;;;;;;;;;525781;28;1196;-62
2022/12/08 01:03:03;;;;;;;13.10;9.05;;;;;;;;;;521664;28;1810;-62
2022/12/08 01:03:19;;;;;;;13.13;9.20;;;;;;;;;;524579;28;1149;-61
2022/12/08 01:03:34;;;;;;;14.10;9.53;;;;;;;;;;523385;28;1238;-61
2022/12/08 01:03:49;;;;;;;13.90;9.52;;;;;;;;;;522594;28;1251;-62
2022/12/08 01:04:07;;;;;;;13.87;9.37;;;;;;;;;;522938;28;1182;-62
2022/12/08 01:04:22;;;;;;;14.30;9.18;;;;;;;;;;523752;28;1442;-62
2022/12/08 01:04:37;;;;;;;13.53;9.30;;;;;;;;;;523048;28;1109;-62
2022/12/08 01:04:53;;;;;;;13.27;9.37;;;;;;;;;;521845;27;1035;-62
2022/12/08 01:05:08;;;;;;;13.27;9.27;;;;;;;;;;525771;27;1192;-62
2022/12/08 01:05:23;;;;;;;13.67;9.30;;;;;;;;;;524156;27;1178;-62
2022/12/08 01:05:39;;;;;;;14.67;9.30;;;;;;;;;;525168;27;1126;-62
2022/12/08 01:05:54;;;;;;;15.40;9.27;;;;;;;;;;525456;28;967;-61
2022/12/08 01:06:10;;;;;;;14.45;9.55;;;;;;;;;;520631;28;1246;-62
2022/12/08 01:06:25;;;;;;;14.02;9.52;;;;;;;;;;522776;28;1331;-62
2022/12/08 01:06:41;;;;;;;14.47;9.57;;;;;;;;;;518634;28;1302;-62
2022/12/08 01:06:56;;;;;;;13.60;9.20;;;;;;;;;;519787;28;1501;-62
2022/12/08 01:07:11;;;;;;;13.17;9.00;;;;;;;;;;518233;28;1445;-62
2022/12/08 01:07:27;;;;;;;14.43;9.37;;;;;;;;;;514370;28;1237;-62
2022/12/08 01:07:42;;;;;;;14.48;9.23;;;;;;;;;;516308;28;1093;-62
2022/12/08 01:07:57;;;;;;;13.77;9.00;;;;;;;;;;515312;28;1020;-62
2022/12/08 01:08:12;;;;;;;14.40;9.30;;;;;;;;;;515374;28;1640;-62
2022/12/08 01:08:28;;;;;;;13.73;9.60;;;;;;;;;;518415;28;1060;-62
2022/12/08 01:08:43;;;;;;;12.02;9.32;;;;;;;;;;516297;28;1180;-62
2022/12/08 01:09:00;;;;;;;14.03;9.10;;;;;;;;;;518254;28;1084;-62
2022/12/08 01:09:16;;;;;;;14.55;9.23;;;;;;;;;;518503;28;1454;-62
2022/12/08 01:09:32;;;;;;;12.85;9.35;;;;;;;;;;520457;28;1233;-62
2022/12/08 01:09:47;;;;;;;12.55;9.02;;;;;;;;;;517744;28;1506;-62
2022/12/08 01:10:03;;;;;;;13.00;8.93;;;;;;;;;;517929;28;1264;-62
2022/12/08 01:10:18;;;;;;;12.70;9.23;;;;;;;;;;521327;28;1086;-62
2022/12/08 01:10:35;;;;;;;12.52;9.20;;;;;;;;;;520055;28;1226;-62
2022/12/08 01:10:50;;;;;;;12.93;9.27;;;;;;;;;;521332;28;1221;-62
2022/12/08 01:11:08;;;;;;;13.80;9.20;;;;;;;;;;519685;28;1537;-62
2022/12/08 01:11:24;;;;;;;14.15;9.23;;;;;;;;;;521279;28;1107;-62
2022/12/08 01:11:39;;;;;;;12.60;9.17;;;;;;;;;;521804;28;1307;-62
2022/12/08 01:11:54;;;;;;;12.10;8.97;;;;;;;;;;519524;28;1363;-62
2022/12/08 01:12:10;;;;;;;12.80;9.13;;;;;;;;;;516121;28;1242;-62
2022/12/08 01:12:28;;;;;;;12.50;9.07;;;;;;;;;;519460;28;1222;-62
2022/12/08 01:12:43;;;;;;;14.55;9.40;;;;;;;;;;521153;28;1087;-62
2022/12/08 01:12:59;;;;;;;17.35;10.73;;;;;;;;;;521553;28;1198;-62
2022/12/08 01:13:14;;;;;;;16.07;10.70;;;;;;;;;;516074;28;1475;-62
2022/12/08 01:13:29;;;;;;;14.40;9.97;;;;;;;;;;521435;28;979;-62
2022/12/08 01:13:45;;;;;;;14.47;10.00;;;;;;;;;;524301;28;1251;-62
2022/12/08 01:14:01;;;;;;;14.10;9.63;;;;;;;;;;522996;28;1491;-61
2022/12/08 01:14:16;;;;;;;13.13;9.30;;;;;;;;;;521327;28;1220;-62
2022/12/08 01:14:32;;;;;;;12.77;9.30;;;;;;;;;;520172;28;1098;-62
2022/12/08 01:14:47;;;;;;;14.23;9.93;;;;;;;;;;521872;28;1082;-62
2022/12/08 01:15:02;;;;;;;19.17;13.10;;;;;;;;;;520276;28;1209;-62
2022/12/08 01:15:18;;;;;;;21.55;15.02;;;;;;;;;;519967;28;1197;-62
2022/12/08 01:15:33;;;;;;;17.97;13.00;;;;;;;;;;519561;28;1194;-62
2022/12/08 01:15:48;;;;;;;14.57;10.57;;;;;;;;;;514200;28;2024;-62
2022/12/08 01:16:04;;;;;;;12.77;9.40;;;;;;;;;;517152;28;1266;-62
2022/12/08 01:16:26;;;;;;;13.02;9.27;;;;;;;;;;520331;28;1111;-61
2022/12/08 01:16:41;;;;;;;12.23;8.80;;;;;;;;;;518937;28;1445;-62
2022/12/08 01:16:56;;;;;;;11.60;8.77;;;;;;;;;;521020;28;991;-62
2022/12/08 01:17:12;;;;;;;11.48;8.70;;;;;;;;;;522112;28;1142;-62
2022/12/08 01:17:27;;;;;;;12.57;8.80;;;;;;;;;;521228;28;1276;-62
2022/12/08 01:17:42;;;;;;;13.07;8.77;;;;;;;;;;520915;28;1201;-62
2022/12/08 01:17:57;;;;;;;14.18;8.82;;;;;;;;;;521595;28;1270;-62
2022/12/08 01:18:13;;;;;;;13.90;9.00;;;;;;;;;;524079;28;1108;-62
2022/12/08 01:18:28;;;;;;;12.93;9.00;;;;;;;;;;522646;28;1493;-62
2022/12/08 01:18:44;;;;;;;12.73;9.00;;;;;;;;;;523170;28;1210;-61
2022/12/08 01:18:59;;;;;;;13.03;9.20;;;;;;;;;;518120;28;1220;-61
2022/12/08 01:19:15;;;;;;;12.95;9.43;;;;;;;;;;519621;28;1292;-62
2022/12/08 01:19:31;;;;;;;13.27;9.18;;;;;;;;;;519163;28;1176;-62
2022/12/08 01:19:46;;;;;;;15.23;9.33;;;;;;;;;;520004;28;1277;-62
2022/12/08 01:20:01;;;;;;;16.70;10.70;;;;;;;;;;520742;28;1220;-62
2022/12/08 01:20:17;;;;;;;17.05;12.25;;;;;;;;;;518896;28;1345;-62
2022/12/08 01:20:32;;;;;;;18.43;14.20;;;;;;;;;;519169;28;1178;-62
2022/12/08 01:20:47;;;;;;;18.00;13.73;;;;;;;;;;522220;28;1153;-62
2022/12/08 01:21:05;;;;;;;14.98;10.73;;;;;;;;;;519499;28;1215;-62
2022/12/08 01:21:20;;;;;;;13.63;9.25;;;;;;;;;;520347;28;1208;-62
2022/12/08 01:21:36;;;;;;;13.50;9.05;;;;;;;;;;519060;28;1204;-62
2022/12/08 01:21:51;;;;;;;12.47;9.17;;;;;;;;;;522151;28;1183;-62
2022/12/08 01:22:06;;;;;;;11.57;9.27;;;;;;;;;;519069;28;1209;-62
2022/12/08 01:22:21;;;;;;;12.00;9.25;;;;;;;;;;519107;28;1198;-62
2022/12/08 01:22:37;;;;;;;12.37;9.40;;;;;;;;;;521520;28;1276;-62
2022/12/08 01:22:52;;;;;;;12.90;9.40;;;;;;;;;;517732;28;1304;-62
2022/12/08 01:23:07;;;;;;;12.57;9.43;;;;;;;;;;518837;28;1221;-62
2022/12/08 01:23:22;;;;;;;12.05;9.35;;;;;;;;;;520478;28;1122;-62
2022/12/08 01:23:38;;;;;;;13.43;9.30;;;;;;;;;;516490;28;1207;-62
2022/12/08 01:23:53;;;;;;;14.07;9.27;;;;;;;;;;516894;28;1159;-62
2022/12/08 01:24:14;;;;;;;13.48;9.05;;;;;;;;;;518563;28;1178;-62
2022/12/08 01:24:29;;;;;;;13.05;8.80;;;;;;;;;;516296;28;1423;-62
2022/12/08 01:24:44;;;;;;;13.37;8.90;;;;;;;;;;519838;28;1120;-62
2022/12/08 01:25:00;;;;;;;13.87;9.03;;;;;;;;;;520610;28;1308;-62
2022/12/08 01:25:16;;;;;;;15.98;9.43;;;;;;;;;;521554;28;1090;-62
2022/12/08 01:25:33;;;;;;;17.58;11.13;;;;;;;;;;522937;28;1244;-62
2022/12/08 01:25:48;;;;;;;17.27;12.57;;;;;;;;;;520211;28;1365;-62
2022/12/08 01:26:06;;;;;;;15.27;11.43;;;;;;;;;;521010;28;1171;-62
2022/12/08 01:26:21;;;;;;;14.10;9.63;;;;;;;;;;518867;28;1767;-62
2022/12/08 01:26:36;;;;;;;14.60;9.00;;;;;;;;;;517412;28;1222;-62
2022/12/08 01:26:52;;;;;;;13.97;9.10;;;;;;;;;;519538;28;1229;-62
2022/12/08 01:27:07;;;;;;;14.43;9.50;;;;;;;;;;520589;28;1146;-62
2022/12/08 01:27:22;;;;;;;13.73;9.57;;;;;;;;;;520973;28;1086;-62
2022/12/08 01:27:37;;;;;;;13.23;9.33;;;;;;;;;;519293;28;1203;-62
2022/12/08 01:27:53;;;;;;;14.53;9.23;;;;;;;;;;519144;28;1459;-62
2022/12/08 01:28:08;;;;;;;13.20;9.07;;;;;;;;;;519134;28;1253;-62
2022/12/08 01:28:23;;;;;;;12.75;9.23;;;;;;;;;;521794;28;1146;-62
2022/12/08 01:28:39;;;;;;;13.27;9.33;;;;;;;;;;521955;28;1160;-62
2022/12/08 01:28:54;;;;;;;13.73;9.45;;;;;;;;;;521305;28;1231;-62
2022/12/08 01:29:10;;;;;;;13.87;9.20;;;;;;;;;;519538;28;1226;-62
2022/12/08 01:29:26;;;;;;;14.02;9.40;;;;;;;;;;521041;28;1150;-62
2022/12/08 01:29:41;;;;;;;14.68;9.55;;;;;;;;;;520243;28;1278;-62
2022/12/08 01:29:57;;;;;;;14.67;9.40;;;;;;;;;;518945;28;1307;-62
2022/12/08 01:30:12;;;;;;;13.57;9.30;;;;;;;;;;518763;28;1213;-62
2022/12/08 01:30:28;;;;;;;13.85;9.40;;;;;;;;;;517443;28;1354;-62
2022/12/08 01:30:43;;;;;;;14.70;9.73;;;;;;;;;;519057;28;1222;-62
2022/12/08 01:30:59;;;;;;;13.63;9.63;;;;;;;;;;517882;28;1358;-62
2022/12/08 01:31:19;;;;;;;13.43;9.70;;;;;;;;;;516142;28;1194;-61
2022/12/08 01:31:34;;;;;;;13.68;9.80;;;;;;;;;;519202;28;1376;-62
2022/12/08 01:31:50;;;;;;;14.50;10.10;;;;;;;;;;517029;28;1206;-62
2022/12/08 01:32:07;;;;;;;14.32;10.13;;;;;;;;;;517298;28;1407;-62
2022/12/08 01:32:22;;;;;;;14.50;9.95;;;;;;;;;;518824;28;1635;-62
2022/12/08 01:32:38;;;;;;;13.88;9.85;;;;;;;;;;518029;28;1304;-62
2022/12/08 01:32:53;;;;;;;14.80;9.73;;;;;;;;;;522654;28;1221;-62
2022/12/08 01:33:08;;;;;;;16.83;10.00;;;;;;;;;;520359;28;1177;-62
2022/12/08 01:33:24;;;;;;;15.93;10.30;;;;;;;;;;516155;28;1341;-62
2022/12/08 01:33:40;;;;;;;14.35;10.30;;;;;;;;;;520575;28;1326;-62
2022/12/08 01:33:55;;;;;;;15.00;10.20;;;;;;;;;;520040;28;1133;-62
2022/12/08 01:34:11;;;;;;;14.27;9.90;;;;;;;;;;519086;28;1324;-62
2022/12/08 01:34:26;;;;;;;12.97;9.80;;;;;;;;;;516077;28;1068;-62
2022/12/08 01:34:42;;;;;;;13.82;9.43;;;;;;;;;;520107;28;1020;-62
2022/12/08 01:34:57;;;;;;;14.17;9.60;;;;;;;;;;522295;28;1373;-62
2022/12/08 01:35:13;;;;;;;13.60;9.90;;;;;;;;;;522744;28;1046;-61
2022/12/08 01:35:28;;;;;;;12.73;9.73;;;;;;;;;;526021;27;1180;-61
2022/12/08 01:35:43;;;;;;;12.90;9.87;;;;;;;;;;521675;28;1961;-62
2022/12/08 01:36:03;;;;;;;13.60;10.00;;;;;;;;;;524260;27;1167;-62
2022/12/08 01:36:26;;;;;;;13.82;9.73;;;;;;;;;;523621;28;1445;-61
2022/12/08 01:36:43;;;;;;;14.20;9.82;;;;;;;;;;522701;28;1153;-62
2022/12/08 01:36:58;;;;;;;14.95;9.75;;;;;;;;;;523199;28;979;-61
2022/12/08 01:37:13;;;;;;;14.40;9.90;;;;;;;;;;520957;28;1281;-62
2022/12/08 01:37:28;;;;;;;13.20;9.68;;;;;;;;;;520021;28;1456;-61
2022/12/08 01:37:44;;;;;;;12.10;9.30;;;;;;;;;;521671;28;1219;-62
2022/12/08 01:37:59;;;;;;;13.03;9.43;;;;;;;;;;521957;28;1547;-62
2022/12/08 01:38:14;;;;;;;13.20;9.50;;;;;;;;;;520184;28;999;-62
2022/12/08 01:38:31;;;;;;;12.90;9.40;;;;;;;;;;521964;28;1308;-62
2022/12/08 01:38:46;;;;;;;14.02;9.93;;;;;;;;;;519229;28;1044;-62
2022/12/08 01:39:04;;;;;;;13.50;9.68;;;;;;;;;;521317;28;1178;-62
2022/12/08 01:39:20;;;;;;;12.40;9.07;;;;;;;;;;522602;28;1133;-62
2022/12/08 01:39:35;;;;;;;13.10;9.50;;;;;;;;;;518744;28;1293;-62
2022/12/08 01:39:50;;;;;;;13.40;9.60;;;;;;;;;;519897;28;1463;-62
2022/12/08 01:40:06;;;;;;;12.85;9.75;;;;;;;;;;521244;28;1062;-62
2022/12/08 01:40:21;;;;;;;14.13;10.10;;;;;;;;;;521362;28;1398;-61
2022/12/08 01:40:37;;;;;;;14.40;10.40;;;;;;;;;;524557;28;1145;-61
2022/12/08 01:40:52;;;;;;;15.87;10.37;;;;;;;;;;520764;28;1297;-62
2022/12/08 01:41:09;;;;;;;15.55;9.90;;;;;;;;;;522601;28;1416;-62